createdAt,value
2022-09-12T00:02:26.660Z,12.20
2022-09-12T00:04:53.585Z,12.20
2022-09-12T00:07:20.563Z,12.20
2022-09-12T00:09:47.612Z,12.10
2022-09-12T00:12:14.529Z,12.10
2022-09-12T00:14:41.538Z,12.00
2022-09-12T00:17:08.470Z,12.10
2022-09-12T00:19:35.604Z,12.10
2022-09-12T00:22:02.581Z,12.10
2022-09-12T00:24:29.499Z,12.00
2022-09-12T00:26:56.509Z,12.00
2022-09-12T00:29:23.467Z,12.00
2022-09-12T00:31:50.576Z,12.00
2022-09-12T00:34:17.607Z,12.00
2022-09-12T00:36:44.527Z,12.00
2022-09-12T00:39:16.801Z,12.00
2022-09-12T00:41:45.827Z,12.00
2022-09-12T00:44:12.697Z,12.00
2022-09-12T00:47:04.593Z,11.90
2022-09-12T00:49:37.897Z,11.90
2022-09-12T00:52:04.780Z,11.90
2022-09-12T00:54:35.728Z,11.80
2022-09-12T00:57:05.614Z,11.90
2022-09-12T00:59:44.700Z,11.90
2022-09-12T01:02:11.791Z,11.80
2022-09-12T01:04:41.080Z,11.80
2022-09-12T01:07:08.842Z,11.90
2022-09-12T01:09:37.810Z,11.80
2022-09-12T01:12:05.301Z,11.70
2022-09-12T01:14:32.463Z,11.70
2022-09-12T01:16:59.434Z,11.70
2022-09-12T01:19:53.285Z,11.70
2022-09-12T01:22:36.556Z,11.70
2022-09-12T01:25:31.811Z,11.70
2022-09-12T01:28:31.501Z,11.70
2022-09-12T01:31:10.377Z,11.70
2022-09-12T01:33:55.437Z,11.70
2022-09-12T01:36:29.555Z,11.70
2022-09-12T01:39:01.601Z,11.70
2022-09-12T01:41:41.765Z,11.80
2022-09-12T01:44:37.608Z,11.90
2022-09-12T01:47:16.421Z,11.90
2022-09-12T01:49:59.461Z,11.90
2022-09-12T01:52:32.942Z,11.80
2022-09-12T01:55:13.125Z,11.80
2022-09-12T01:57:58.239Z,11.80
2022-09-12T02:00:25.815Z,11.70
2022-09-12T02:03:02.620Z,11.70
2022-09-12T02:05:58.001Z,11.70
2022-09-12T02:08:33.268Z,11.70
2022-09-12T02:11:05.801Z,11.70
2022-09-12T02:13:39.235Z,11.70
2022-09-12T02:16:12.451Z,11.60
2022-09-12T02:18:44.392Z,11.60
2022-09-12T02:21:11.969Z,11.60
2022-09-12T02:23:43.547Z,11.60
2022-09-12T02:26:20.133Z,11.60
2022-09-12T02:28:48.170Z,11.60
2022-09-12T02:31:27.415Z,11.60
2022-09-12T02:34:09.846Z,11.60
2022-09-12T02:36:52.060Z,11.60
2022-09-12T02:39:21.090Z,11.60
2022-09-12T02:41:51.696Z,11.60
2022-09-12T02:44:19.084Z,11.60
2022-09-12T02:46:51.625Z,11.60
2022-09-12T02:49:19.280Z,11.60
2022-09-12T02:51:47.603Z,11.60
2022-09-12T02:54:17.130Z,11.60
2022-09-12T02:56:45.446Z,11.80
2022-09-12T02:59:16.956Z,11.80
2022-09-12T03:01:47.029Z,11.90
2022-09-12T03:04:35.584Z,12.00
2022-09-12T03:07:15.049Z,12.10
2022-09-12T03:10:02.981Z,12.30
2022-09-12T03:12:59.420Z,12.40
2022-09-12T03:15:41.546Z,12.60
2022-09-12T03:18:20.914Z,12.60
2022-09-12T03:20:55.346Z,12.70
2022-09-12T03:23:29.102Z,12.70
2022-09-12T03:26:21.410Z,12.70
2022-09-12T03:28:50.264Z,12.80
2022-09-12T03:31:19.706Z,12.80
2022-09-12T03:33:46.712Z,12.90
2022-09-12T03:36:19.186Z,12.90
2022-09-12T03:38:46.229Z,12.90
2022-09-12T03:41:13.344Z,12.90
2022-09-12T03:43:40.246Z,13.00
2022-09-12T03:46:07.607Z,13.10
2022-09-12T03:48:34.524Z,13.10
2022-09-12T03:51:07.433Z,13.10
2022-09-12T03:53:34.624Z,13.20
2022-09-12T03:56:09.861Z,13.20
2022-09-12T03:58:37.525Z,13.20
2022-09-12T04:01:12.864Z,13.20
2022-09-12T04:03:40.939Z,13.20
2022-09-12T04:06:09.982Z,13.20
2022-09-12T04:08:37.568Z,13.20
2022-09-12T04:11:06.814Z,13.20
2022-09-12T04:13:35.252Z,13.20
2022-09-12T04:16:03.180Z,13.30
2022-09-12T04:18:30.186Z,13.20
2022-09-12T04:20:57.575Z,13.20
2022-09-12T04:23:24.939Z,13.20
2022-09-12T04:26:00.464Z,13.20
2022-09-12T04:28:32.480Z,13.20
2022-09-12T04:31:08.064Z,13.20
2022-09-12T04:33:35.929Z,13.20
2022-09-12T04:36:07.610Z,13.20
2022-09-12T04:38:35.828Z,13.30
2022-09-12T04:41:21.059Z,13.30
2022-09-12T04:43:51.921Z,13.30
2022-09-12T04:46:22.030Z,13.20
2022-09-12T04:48:52.205Z,13.20
2022-09-12T04:51:27.721Z,13.20
2022-09-12T04:54:16.332Z,13.20
2022-09-12T04:56:46.193Z,13.20
2022-09-12T04:59:14.404Z,13.20
2022-09-12T05:01:42.447Z,13.20
2022-09-12T05:04:15.429Z,13.20
2022-09-12T05:06:43.579Z,13.20
2022-09-12T05:09:14.361Z,13.20
2022-09-12T05:14:32.409Z,13.20
2022-09-12T05:17:01.358Z,13.20
2022-09-12T05:19:30.266Z,13.20
2022-09-12T05:21:57.713Z,13.20
2022-09-12T05:24:25.133Z,13.20
2022-09-12T05:26:52.189Z,13.30
2022-09-12T05:29:19.884Z,13.30
2022-09-12T05:31:52.283Z,13.30
2022-09-12T05:34:20.353Z,13.30
2022-09-12T05:36:47.478Z,13.40
2022-09-12T05:39:14.457Z,13.40
2022-09-12T05:41:41.329Z,13.40
2022-09-12T05:44:12.652Z,13.50
2022-09-12T05:46:41.367Z,13.50
2022-09-12T05:49:10.738Z,13.60
2022-09-12T05:51:41.418Z,13.60
2022-09-12T05:54:10.951Z,13.60
2022-09-12T05:56:40.273Z,13.70
2022-09-12T05:59:19.159Z,13.70
2022-09-12T06:01:46.662Z,13.70
2022-09-12T06:04:13.949Z,13.80
2022-09-12T06:06:45.210Z,13.80
2022-09-12T06:09:17.257Z,13.80
2022-09-12T06:11:45.528Z,13.80
2022-09-12T06:14:14.757Z,13.80
2022-09-12T06:16:41.941Z,13.90
2022-09-12T06:19:15.497Z,14.00
2022-09-12T06:21:42.445Z,14.00
2022-09-12T06:24:09.468Z,14.00
2022-09-12T06:26:36.916Z,14.10
2022-09-12T06:29:04.217Z,14.20
2022-09-12T06:31:33.756Z,14.30
2022-09-12T06:34:06.299Z,14.40
2022-09-12T06:36:38.856Z,14.50
2022-09-12T06:39:10.896Z,14.70
2022-09-12T06:41:42.964Z,14.80
2022-09-12T06:44:29.751Z,15.00
2022-09-12T06:46:58.277Z,15.10
2022-09-12T06:49:25.220Z,15.20
2022-09-12T06:51:52.156Z,15.30
2022-09-12T06:54:19.955Z,15.40
2022-09-12T06:56:46.992Z,15.50
2022-09-12T06:59:14.227Z,15.60
2022-09-12T07:01:41.743Z,15.70
2022-09-12T07:04:09.094Z,15.80
2022-09-12T07:06:38.415Z,15.80
2022-09-12T07:09:07.881Z,15.90
2022-09-12T07:11:37.969Z,16.00
2022-09-12T07:14:06.805Z,16.00
2022-09-12T07:16:36.607Z,16.10
2022-09-12T07:19:05.315Z,16.10
2022-09-12T07:21:32.904Z,16.20
2022-09-12T07:23:59.913Z,16.30
2022-09-12T07:26:29.320Z,16.30
2022-09-12T07:29:12.748Z,16.40
2022-09-12T07:31:45.226Z,16.50
2022-09-12T07:34:12.141Z,16.60
2022-09-12T07:36:39.236Z,16.70
2022-09-12T07:39:06.368Z,16.80
2022-09-12T07:41:34.114Z,16.90
2022-09-12T07:44:02.633Z,17.10
2022-09-12T07:46:31.201Z,17.20
2022-09-12T07:49:00.194Z,17.20
2022-09-12T07:51:28.892Z,17.30
2022-09-12T07:53:56.562Z,17.40
2022-09-12T07:56:29.641Z,17.50
2022-09-12T07:58:57.831Z,17.50
2022-09-12T08:01:24.804Z,17.50
2022-09-12T08:03:58.031Z,17.60
2022-09-12T08:06:26.929Z,17.60
2022-09-12T08:08:58.439Z,17.70
2022-09-12T08:11:28.040Z,17.80
2022-09-12T08:13:57.174Z,17.80
2022-09-12T08:16:27.655Z,17.90
2022-09-12T08:18:54.600Z,17.90
2022-09-12T08:21:27.173Z,18.00
2022-09-12T08:23:56.326Z,18.00
2022-09-12T08:26:23.492Z,18.00
2022-09-12T08:28:51.495Z,18.10
2022-09-12T08:31:21.136Z,18.10
2022-09-12T08:33:48.466Z,18.20
2022-09-12T08:36:21.294Z,18.20
2022-09-12T08:38:50.569Z,18.30
2022-09-12T08:41:24.947Z,18.40
2022-09-12T08:44:03.867Z,18.60
2022-09-12T08:46:51.709Z,18.70
2022-09-12T08:49:35.038Z,18.70
2022-09-12T08:52:44.305Z,18.80
2022-09-12T08:55:36.624Z,18.80
2022-09-12T08:58:25.585Z,18.90
2022-09-12T09:01:24.100Z,18.90
2022-09-12T09:04:28.106Z,19.00
2022-09-12T09:06:59.286Z,19.00
2022-09-12T09:09:44.649Z,19.20
2022-09-12T09:12:25.974Z,19.30
2022-09-12T09:15:14.712Z,19.30
2022-09-12T09:17:44.935Z,19.40
2022-09-12T09:20:24.073Z,19.50
2022-09-12T09:22:53.524Z,19.50
2022-09-12T09:25:43.845Z,19.60
2022-09-12T09:28:25.565Z,19.70
2022-09-12T09:30:52.974Z,19.80
2022-09-12T09:33:26.620Z,19.90
2022-09-12T09:36:18.590Z,20.00
2022-09-12T09:39:05.957Z,20.10
2022-09-12T09:41:48.143Z,20.20
2022-09-12T09:44:15.309Z,20.20
2022-09-12T09:46:42.332Z,20.20
2022-09-12T09:49:12.740Z,20.30
2022-09-12T09:51:41.418Z,20.40
2022-09-12T09:54:17.694Z,20.50
2022-09-12T09:56:45.031Z,20.60
2022-09-12T09:59:26.260Z,20.60
2022-09-12T10:01:57.594Z,20.70
2022-09-12T10:04:27.940Z,20.80
2022-09-12T10:07:00.630Z,20.90
2022-09-12T10:09:36.173Z,21.00
2022-09-12T10:12:22.124Z,21.10
2022-09-12T10:14:58.927Z,21.20
2022-09-12T10:17:34.311Z,21.30
2022-09-12T10:20:21.655Z,21.40
2022-09-12T10:22:49.541Z,21.50
2022-09-12T10:25:18.590Z,21.80
2022-09-12T10:27:57.479Z,22.10
2022-09-12T10:30:28.732Z,22.50
2022-09-12T10:33:07.292Z,22.80
2022-09-12T10:35:45.681Z,23.20
2022-09-12T10:38:26.588Z,23.30
2022-09-12T10:41:06.514Z,23.30
2022-09-12T10:43:33.525Z,23.10
2022-09-12T10:46:16.020Z,23.10
2022-09-12T10:48:45.318Z,23.10
2022-09-12T10:51:28.111Z,23.10
2022-09-12T10:54:02.007Z,23.10
2022-09-12T10:56:51.301Z,23.20
2022-09-12T10:59:20.260Z,23.30
2022-09-12T11:01:47.448Z,23.20
2022-09-12T11:04:17.342Z,23.30
2022-09-12T11:07:03.579Z,23.30
2022-09-12T11:09:54.624Z,23.40
2022-09-12T11:12:59.222Z,23.40
2022-09-12T11:16:04.158Z,23.60
2022-09-12T11:19:03.915Z,23.80
2022-09-12T11:21:46.815Z,23.90
2022-09-12T11:24:25.205Z,24.00
2022-09-12T11:27:27.702Z,24.20
2022-09-12T11:30:13.606Z,24.30
2022-09-12T11:33:08.262Z,24.50
2022-09-12T11:35:44.137Z,24.60
2022-09-12T11:38:45.285Z,24.70
2022-09-12T11:41:26.274Z,24.60
2022-09-12T11:44:02.618Z,24.50
2022-09-12T11:46:33.674Z,24.40
2022-09-12T11:49:35.785Z,24.30
2022-09-12T11:52:16.731Z,24.30
2022-09-12T11:55:08.526Z,24.50
2022-09-12T11:57:54.353Z,24.60
2022-09-12T12:00:22.613Z,24.70
2022-09-12T12:03:20.683Z,24.80
2022-09-12T12:05:55.359Z,24.70
2022-09-12T12:08:24.580Z,24.50
2022-09-12T12:11:00.861Z,24.50
2022-09-12T12:13:46.764Z,24.70
2022-09-12T12:16:27.261Z,25.00
2022-09-12T12:19:04.130Z,25.20
2022-09-12T12:21:40.192Z,25.30
2022-09-12T12:24:10.561Z,25.30
2022-09-12T12:26:40.624Z,25.20
2022-09-12T12:29:18.560Z,25.30
2022-09-12T12:32:03.634Z,25.30
2022-09-12T12:34:42.215Z,25.40
2022-09-12T12:37:21.628Z,25.50
2022-09-12T12:39:49.835Z,25.60
2022-09-12T12:42:35.226Z,25.50
2022-09-12T12:45:23.723Z,25.50
2022-09-12T12:47:57.367Z,25.70
2022-09-12T12:50:31.158Z,25.90
2022-09-12T12:53:02.891Z,26.00
2022-09-12T12:55:43.241Z,25.90
2022-09-12T12:58:36.320Z,25.70
2022-09-12T13:01:10.796Z,25.60
2022-09-12T13:03:41.339Z,25.60
2022-09-12T13:06:19.724Z,25.60
2022-09-12T13:09:00.107Z,25.80
2022-09-12T13:11:36.844Z,25.90
2022-09-12T13:14:05.078Z,25.90
2022-09-12T13:16:53.822Z,26.00
2022-09-12T13:19:29.247Z,26.20
2022-09-12T13:22:00.991Z,26.10
2022-09-12T13:24:28.406Z,26.30
2022-09-12T13:26:57.561Z,26.50
2022-09-12T13:29:27.367Z,26.70
2022-09-12T13:32:02.691Z,26.80
2022-09-12T13:34:44.886Z,26.70
2022-09-12T13:37:39.200Z,26.80
2022-09-12T13:40:07.440Z,26.90
2022-09-12T13:42:52.821Z,26.90
2022-09-12T13:45:25.059Z,27.00
2022-09-12T13:47:59.036Z,27.30
2022-09-12T13:50:42.818Z,27.50
2022-09-12T13:53:16.921Z,27.40
2022-09-12T13:55:55.254Z,27.50
2022-09-12T13:58:25.589Z,27.60
2022-09-12T14:01:12.319Z,27.50
2022-09-12T14:04:11.399Z,27.60
2022-09-12T14:06:50.124Z,27.60
2022-09-12T14:09:25.266Z,27.80
2022-09-12T14:11:53.070Z,28.00
2022-09-12T14:14:33.881Z,28.10
2022-09-12T14:17:00.947Z,28.10
2022-09-12T14:19:29.126Z,28.10
2022-09-12T14:21:57.597Z,28.10
2022-09-12T14:24:24.806Z,28.10
2022-09-12T14:26:56.776Z,28.00
2022-09-12T14:29:25.215Z,28.10
2022-09-12T14:32:05.748Z,27.90
2022-09-12T14:34:32.767Z,27.80
2022-09-12T14:37:01.041Z,27.70
2022-09-12T14:39:32.999Z,27.70
2022-09-12T14:42:13.205Z,27.70
2022-09-12T14:44:41.323Z,27.50
2022-09-12T14:47:21.431Z,27.40
2022-09-12T14:49:50.058Z,27.50
2022-09-12T14:52:33.329Z,27.60
2022-09-12T14:55:23.895Z,27.60
2022-09-12T14:58:22.822Z,27.60
2022-09-12T15:01:03.775Z,27.40
2022-09-12T15:03:34.402Z,27.50
2022-09-12T15:06:03.763Z,27.50
2022-09-12T15:08:32.207Z,27.50
2022-09-12T15:11:00.226Z,27.60
2022-09-12T15:13:30.187Z,27.70
2022-09-12T15:15:58.984Z,27.70
2022-09-12T15:18:28.708Z,27.60
2022-09-12T15:21:05.387Z,27.50
2022-09-12T15:23:32.854Z,27.50
2022-09-12T15:26:00.409Z,27.40
2022-09-12T15:28:27.923Z,27.50
2022-09-12T15:30:57.002Z,27.60
2022-09-12T15:33:25.772Z,27.60
2022-09-12T15:35:53.626Z,27.70
2022-09-12T15:38:25.777Z,27.70
2022-09-12T15:40:54.451Z,27.70
2022-09-12T15:43:26.260Z,27.60
2022-09-12T15:45:53.428Z,27.40
2022-09-12T15:48:21.072Z,27.10
2022-09-12T15:50:48.442Z,27.10
2022-09-12T15:53:16.691Z,27.00
2022-09-12T15:55:44.181Z,27.10
2022-09-12T15:58:11.337Z,27.10
2022-09-12T16:00:38.788Z,27.10
2022-09-12T16:03:06.397Z,27.10
2022-09-12T16:05:36.711Z,27.10
2022-09-12T16:08:03.636Z,27.00
2022-09-12T16:10:31.321Z,26.90
2022-09-12T16:12:59.742Z,26.80
2022-09-12T16:15:26.776Z,26.80
2022-09-12T16:17:56.494Z,26.70
2022-09-12T16:20:24.383Z,26.60
2022-09-12T16:22:51.537Z,26.50
2022-09-12T16:25:18.685Z,26.30
2022-09-12T16:27:45.818Z,26.10
2022-09-12T16:30:13.812Z,25.90
2022-09-12T16:32:41.024Z,25.80
2022-09-12T16:35:08.873Z,25.70
2022-09-12T16:37:36.171Z,25.50
2022-09-12T16:40:04.742Z,25.30
2022-09-12T16:42:31.807Z,25.30
2022-09-12T16:44:58.837Z,25.10
2022-09-12T16:47:28.094Z,25.00
2022-09-12T16:49:55.077Z,24.90
2022-09-12T16:52:21.942Z,24.90
2022-09-12T16:54:48.941Z,24.70
2022-09-12T16:57:16.268Z,24.60
2022-09-12T16:59:43.311Z,24.50
2022-09-12T17:02:14.729Z,24.50
2022-09-12T17:04:42.151Z,24.40
2022-09-12T17:07:09.279Z,24.30
2022-09-12T17:09:36.301Z,24.20
2022-09-12T17:12:03.453Z,24.00
2022-09-12T17:14:30.625Z,23.80
2022-09-12T17:16:57.766Z,23.70
2022-09-12T17:19:35.281Z,23.70
2022-09-12T17:22:02.309Z,23.50
2022-09-12T17:24:29.853Z,23.40
2022-09-12T17:26:57.172Z,23.30
2022-09-12T17:29:24.183Z,23.20
2022-09-12T17:31:51.501Z,23.10
2022-09-12T17:34:18.468Z,22.90
2022-09-12T17:36:45.818Z,22.70
2022-09-12T17:39:13.791Z,22.50
2022-09-12T17:41:42.729Z,22.30
2022-09-12T17:44:15.103Z,22.10
2022-09-12T17:46:42.975Z,22.00
2022-09-12T17:49:15.563Z,21.80
2022-09-12T17:51:43.594Z,21.60
2022-09-12T17:54:16.146Z,21.40
2022-09-12T17:56:45.437Z,21.20
2022-09-12T17:59:16.616Z,21.00
2022-09-12T18:02:02.626Z,20.90
2022-09-12T18:04:29.810Z,20.70
2022-09-12T18:06:57.646Z,20.60
2022-09-12T18:09:27.940Z,20.40
2022-09-12T18:11:55.441Z,20.30
2022-09-12T18:14:23.517Z,20.20
2022-09-12T18:16:50.832Z,20.10
2022-09-12T18:19:18.304Z,19.90
2022-09-12T18:21:45.500Z,19.80
2022-09-12T18:24:12.572Z,19.80
2022-09-12T18:26:39.712Z,19.60
2022-09-12T18:29:07.254Z,19.60
2022-09-12T18:31:34.288Z,19.50
2022-09-12T18:34:02.854Z,19.40
2022-09-12T18:36:30.815Z,19.30
2022-09-12T18:38:59.680Z,19.20
2022-09-12T18:41:28.879Z,19.10
2022-09-12T18:43:57.643Z,19.00
2022-09-12T18:46:26.122Z,18.90
2022-09-12T18:48:55.515Z,18.90
2022-09-12T18:51:25.678Z,18.80
2022-09-12T18:53:54.843Z,18.70
2022-09-12T18:56:23.745Z,18.70
2022-09-12T18:58:55.187Z,18.60
2022-09-12T19:01:24.869Z,18.50
2022-09-12T19:03:53.187Z,18.50
2022-09-12T19:06:22.898Z,18.40
2022-09-12T19:08:51.495Z,18.30
2022-09-12T19:11:20.075Z,18.20
2022-09-12T19:13:49.055Z,18.20
2022-09-12T19:16:21.816Z,18.20
2022-09-12T19:18:49.869Z,18.20
2022-09-12T19:21:25.046Z,18.10
2022-09-12T19:23:53.718Z,18.10
2022-09-12T19:26:21.717Z,18.00
2022-09-12T19:28:49.443Z,18.00
2022-09-12T19:31:21.758Z,18.00
2022-09-12T19:33:49.752Z,18.00
2022-09-12T19:36:43.365Z,18.10
2022-09-12T19:39:07.498Z,18.20
2022-09-12T19:41:35.140Z,18.30
2022-09-12T19:44:02.341Z,18.30
2022-09-12T19:46:29.261Z,18.40
2022-09-12T19:48:56.407Z,18.50
2022-09-12T19:51:26.391Z,18.50
2022-09-12T19:53:53.712Z,18.60
2022-09-12T19:56:20.810Z,18.60
2022-09-12T19:58:53.506Z,18.70
2022-09-12T20:01:25.124Z,18.80
2022-09-12T20:03:55.075Z,18.90
2022-09-12T20:06:22.591Z,18.90
2022-09-12T20:08:49.786Z,18.90
2022-09-12T20:11:18.337Z,19.00
2022-09-12T20:13:46.158Z,19.00
2022-09-12T20:16:33.749Z,19.00
2022-09-12T20:19:07.151Z,19.00
2022-09-12T20:21:36.006Z,19.00
2022-09-12T20:24:10.219Z,19.00
2022-09-12T20:26:37.320Z,19.00
2022-09-12T20:29:05.481Z,19.00
2022-09-12T20:31:33.334Z,19.10
2022-09-12T20:34:00.495Z,19.10
2022-09-12T20:36:27.800Z,19.10
2022-09-12T20:38:59.863Z,19.20
2022-09-12T20:41:29.342Z,19.20
2022-09-12T20:43:56.959Z,19.20
2022-09-12T20:46:28.218Z,19.30
2022-09-12T20:48:55.854Z,19.30
2022-09-12T20:51:24.522Z,19.30
2022-09-12T20:53:55.122Z,19.40
2022-09-12T20:56:28.511Z,19.30
2022-09-12T20:58:55.828Z,19.40
2022-09-12T21:01:22.961Z,19.40
2022-09-12T21:03:50.423Z,19.40
2022-09-12T21:06:17.727Z,19.50
2022-09-12T21:08:46.268Z,19.40
2022-09-12T21:11:14.176Z,19.40
2022-09-12T21:13:41.135Z,19.40
2022-09-12T21:16:13.727Z,19.50
2022-09-12T21:18:41.417Z,19.50
2022-09-12T21:21:10.338Z,19.40
2022-09-12T21:23:37.514Z,19.40
2022-09-12T21:26:04.462Z,19.40
2022-09-12T21:28:31.298Z,19.40
2022-09-12T21:30:58.325Z,19.40
2022-09-12T21:33:25.763Z,19.40
2022-09-12T21:35:52.708Z,19.40
2022-09-12T21:38:20.589Z,19.30
2022-09-12T21:40:47.958Z,19.40
2022-09-12T21:43:15.313Z,19.40
2022-09-12T21:45:42.235Z,19.30
2022-09-12T21:48:09.237Z,19.20
2022-09-12T21:50:36.133Z,19.20
2022-09-12T21:53:03.080Z,19.20
2022-09-12T21:55:30.193Z,19.20
2022-09-12T21:57:57.434Z,19.20
2022-09-12T22:00:24.423Z,19.10
2022-09-12T22:02:51.318Z,19.10
2022-09-12T22:05:21.223Z,19.10
2022-09-12T22:07:48.201Z,19.10
2022-09-12T22:10:15.236Z,19.10
2022-09-12T22:12:46.026Z,19.00
2022-09-12T22:15:39.055Z,19.00
2022-09-12T22:18:00.976Z,19.00
2022-09-12T22:20:27.937Z,18.90
2022-09-12T22:23:13.453Z,18.90
2022-09-12T22:25:40.700Z,18.90
2022-09-12T22:28:07.497Z,18.80
2022-09-12T22:30:34.467Z,18.80
2022-09-12T22:33:01.393Z,18.80
2022-09-12T22:35:28.434Z,18.80
2022-09-12T22:37:55.380Z,18.80
2022-09-12T22:40:22.489Z,18.70
2022-09-12T22:42:54.991Z,18.70
2022-09-12T22:45:22.104Z,18.70
2022-09-12T22:47:48.989Z,18.70
2022-09-12T22:50:16.012Z,18.70
2022-09-12T22:52:42.893Z,18.80
2022-09-12T22:55:09.927Z,18.80
2022-09-12T22:57:37.706Z,18.80
2022-09-12T23:00:08.888Z,18.80
2022-09-12T23:02:35.978Z,18.80
2022-09-12T23:05:03.385Z,18.70
2022-09-12T23:07:30.348Z,18.70
2022-09-12T23:09:57.241Z,18.70
2022-09-12T23:12:24.195Z,18.70
2022-09-12T23:14:51.148Z,18.70
2022-09-12T23:17:18.141Z,18.70
2022-09-12T23:19:45.263Z,18.70
2022-09-12T23:22:12.192Z,18.70
2022-09-12T23:24:39.158Z,18.70
2022-09-12T23:27:06.203Z,18.60
2022-09-12T23:29:35.222Z,18.60
2022-09-12T23:32:06.664Z,18.60
2022-09-12T23:34:33.906Z,18.70
2022-09-12T23:37:00.706Z,18.70
2022-09-12T23:39:27.872Z,18.70
2022-09-12T23:41:54.989Z,18.70
2022-09-12T23:44:21.865Z,18.80
2022-09-12T23:46:48.750Z,18.80
2022-09-12T23:49:15.699Z,18.80
2022-09-12T23:51:42.612Z,18.80
2022-09-12T23:54:09.501Z,18.80
2022-09-12T23:56:36.423Z,18.80
2022-09-12T23:59:03.403Z,18.80
